Time;durP1;ratioP1;P1;durP2;ratioP2;P2;SDS_P1;SDS_P2;PMS_P1;PMS_P2;Temp;Humidity;BMP_temperature;BMP_pressure;BME280_temperature;BME280_humidity;BME280_pressure;Samples;Min_cycle;Max_cycle;Signal;HPM_P1;HPM_P2
2021/07/20 00:00:00;;;;;;;14.65;7.15;;;;;;;20.29;68.95;96786.59;4994073;28;20042;-65
2021/07/20 00:02:42;;;;;;;13.43;6.85;;;;;;;20.35;68.29;96790.47;4981578;28;20787;-65
2021/07/20 00:05:10;;;;;;;15.23;7.38;;;;;;;20.28;69.15;96785.06;4986377;28;20038;-63
2021/07/20 00:07:36;;;;;;;13.43;7.25;;;;;;;20.03;70.76;96793.91;4984309;28;20100;-62
2021/07/20 00:10:06;;;;;;;14.63;7.05;;;;;;;19.97;71.34;96788.06;4992194;28;20042;-63
2021/07/20 00:12:31;;;;;;;18.20;6.82;;;;;;;19.74;72.80;96796.44;4990304;28;20046;-63
2021/07/20 00:14:58;;;;;;;14.98;6.80;;;;;;;19.56;73.79;96797.50;4987019;28;20053;-64
2021/07/20 00:17:27;;;;;;;14.45;6.88;;;;;;;19.67;72.90;96795.31;4993565;28;20107;-64
2021/07/20 00:19:52;;;;;;;12.30;7.00;;;;;;;19.76;72.22;96797.56;4996848;28;20045;-63
2021/07/20 00:22:18;;;;;;;13.77;6.88;;;;;;;19.69;72.11;96792.13;4989042;28;20044;-63
2021/07/20 00:24:43;;;;;;;11.75;6.88;;;;;;;19.53;72.76;96794.78;4999872;28;20046;-64
2021/07/20 00:27:09;;;;;;;16.63;7.47;;;;;;;19.36;73.77;96785.56;4995294;28;20038;-64
2021/07/20 00:29:34;;;;;;;13.05;7.68;;;;;;;19.20;74.90;96783.47;4999975;28;20049;-64
2021/07/20 00:31:59;;;;;;;11.38;6.95;;;;;;;19.26;75.05;96781.75;4998061;28;20042;-64
2021/07/20 00:34:25;;;;;;;16.83;7.60;;;;;;;19.23;74.67;96786.19;4988938;28;20119;-66
2021/07/20 00:36:50;;;;;;;14.82;7.32;;;;;;;19.17;75.12;96779.50;4992053;28;20046;-64
2021/07/20 00:39:15;;;;;;;12.93;7.53;;;;;;;19.00;75.63;96786.94;4974519;28;20041;-64
2021/07/20 00:41:41;;;;;;;15.63;7.47;;;;;;;19.10;75.35;96780.44;4998100;28;20103;-64
2021/07/20 00:44:07;;;;;;;13.43;7.25;;;;;;;19.28;74.37;96777.38;4994298;28;20141;-62
2021/07/20 00:46:33;;;;;;;12.55;7.03;;;;;;;19.43;74.26;96783.47;4998343;28;20376;-63
2021/07/20 00:48:58;;;;;;;11.93;6.53;;;;;;;19.32;74.60;96774.53;4992811;28;20452;-65
2021/07/20 00:51:23;;;;;;;14.75;7.43;;;;;;;19.30;74.69;96768.59;4991686;28;20046;-63
2021/07/20 00:53:50;;;;;;;14.27;7.13;;;;;;;19.28;74.76;96777.38;4997510;28;20084;-63
2021/07/20 00:56:16;;;;;;;17.75;7.75;;;;;;;19.18;75.41;96770.00;4993903;28;20100;-63
2021/07/20 00:58:42;;;;;;;11.20;6.65;;;;;;;19.03;76.26;96776.97;4993114;28;20429;-63
2021/07/20 01:01:08;;;;;;;17.38;8.00;;;;;;;18.99;76.75;96779.81;4991758;28;20057;-63
2021/07/20 01:03:33;;;;;;;12.88;7.22;;;;;;;19.17;76.02;96775.97;4978479;28;20455;-63
2021/07/20 01:06:02;;;;;;;12.50;8.27;;;;;;;18.92;74.88;96771.59;4978591;28;20372;-63
2021/07/20 01:08:29;;;;;;;13.52;7.40;;;;;;;18.72;76.30;96775.00;4990160;28;20137;-63
2021/07/20 01:10:56;;;;;;;13.82;7.47;;;;;;;18.68;77.25;96781.84;4990262;28;20053;-64
2021/07/20 01:13:23;;;;;;;19.15;7.97;;;;;;;18.71;77.64;96772.69;4993027;28;20891;-65
2021/07/20 01:15:49;;;;;;;14.70;7.85;;;;;;;18.62;78.21;96775.16;4988844;28;20037;-63
2021/07/20 01:18:15;;;;;;;12.60;7.55;;;;;;;18.58;79.29;96780.75;4992901;28;20046;-60
2021/07/20 01:20:41;;;;;;;14.38;6.88;;;;;;;18.50;79.13;96776.53;4985029;28;20045;-64
2021/07/20 01:23:21;;;;;;;15.48;7.45;;;;;;;18.47;79.39;96777.38;4972277;28;20049;-62
2021/07/20 01:25:50;;;;;;;12.87;6.73;;;;;;;18.28;79.88;96773.28;4982921;28;20043;-65
2021/07/20 01:28:20;;;;;;;29.63;7.70;;;;;;;18.14;80.73;96775.00;4975130;28;20045;-65
2021/07/20 01:30:48;;;;;;;15.32;7.95;;;;;;;17.75;83.28;96767.94;4980695;28;20053;-65
2021/07/20 01:33:15;;;;;;;14.95;7.93;;;;;;;17.95;79.89;96764.53;4993452;28;20136;-63
2021/07/20 01:35:43;;;;;;;15.77;7.95;;;;;;;17.83;82.13;96754.00;5027718;23;20482;-61
2021/07/20 01:38:11;;;;;;;17.33;7.85;;;;;;;17.82;82.90;96763.50;5002361;28;20061;-63
2021/07/20 01:40:37;;;;;;;17.58;8.35;;;;;;;17.74;83.59;96771.88;5014557;28;20406;-63
2021/07/20 01:43:07;;;;;;;15.43;7.47;;;;;;;17.64;84.23;96764.47;5020715;28;20192;-62
2021/07/20 01:45:35;;;;;;;18.10;8.68;;;;;;;17.56;84.66;96766.53;5023466;28;20076;-64
2021/07/20 01:48:03;;;;;;;16.02;8.27;;;;;;;17.53;85.53;96774.88;5028985;28;20106;-63
2021/07/20 01:50:29;;;;;;;13.93;7.93;;;;;;;17.58;84.17;96769.66;5036615;28;20049;-63
2021/07/20 01:52:55;;;;;;;14.40;8.43;;;;;;;17.48;85.26;96772.53;5022994;28;20141;-62
2021/07/20 01:55:24;;;;;;;17.48;8.13;;;;;;;17.74;84.60;96776.66;5018155;28;20077;-63
2021/07/20 01:57:49;;;;;;;13.85;7.60;;;;;;;17.81;82.68;96768.25;5023380;28;20049;-62
2021/07/20 02:00:18;;;;;;;18.02;8.80;;;;;;;17.64;83.98;96770.00;5018444;28;20494;-63
2021/07/20 02:08:28;;;;;;;17.00;8.30;;;;;;;17.09;87.17;96779.25;5017818;28;20052;-63
2021/07/20 02:11:09;;;;;;;16.85;8.20;;;;;;;16.92;87.53;96786.47;5023535;28;20038;-61
2021/07/20 02:13:45;;;;;;;15.65;9.00;;;;;;;16.89;87.91;96790.03;5036615;28;20457;-62
2021/07/20 02:16:13;;;;;;;16.08;7.72;;;;;;;16.80;88.79;96787.72;5006292;28;20033;-63
2021/07/20 02:18:43;;;;;;;15.80;7.82;;;;;;;16.99;89.28;96786.41;5001280;28;20057;-62
2021/07/20 02:21:09;;;;;;;16.75;8.18;;;;;;;16.92;88.83;96787.25;5015334;28;20067;-62
2021/07/20 02:23:35;;;;;;;14.75;8.38;;;;;;;16.73;90.21;96794.06;5016652;28;20391;-62
2021/07/20 02:26:05;;;;;;;15.18;8.18;;;;;;;16.61;90.53;96792.56;5003453;28;20124;-62
2021/07/20 02:28:34;;;;;;;13.57;8.20;;;;;;;16.49;91.50;96790.25;5003189;28;20092;-62
2021/07/20 02:31:00;;;;;;;15.80;8.43;;;;;;;15.70;96.45;96795.28;5003232;28;20478;-62
2021/07/20 02:33:27;;;;;;;17.42;8.70;;;;;;;15.99;95.60;96790.47;5015320;28;20379;-62
2021/07/20 02:35:53;;;;;;;13.57;7.43;;;;;;;16.12;94.33;96791.63;5017973;28;20052;-63
2021/07/20 02:38:19;;;;;;;17.05;8.77;;;;;;;16.04;94.94;96793.63;5006383;28;20046;-62
2021/07/20 02:40:48;;;;;;;18.40;9.38;;;;;;;15.54;97.77;96787.41;5015010;28;20049;-63
2021/07/20 02:43:16;;;;;;;13.98;9.15;;;;;;;15.55;97.50;96789.78;5016966;28;20041;-62
2021/07/20 02:45:42;;;;;;;15.57;9.25;;;;;;;15.53;97.84;96788.63;5022026;28;20045;-64
2021/07/20 02:48:08;;;;;;;15.25;8.57;;;;;;;15.68;97.73;96790.97;5016237;28;20056;-64
2021/07/20 02:50:35;;;;;;;15.30;8.38;;;;;;;15.83;96.74;96793.72;5022901;28;20037;-64
2021/07/20 02:53:01;;;;;;;17.58;9.32;;;;;;;15.84;96.05;96795.25;5020792;28;20089;-63
2021/07/20 02:55:28;;;;;;;16.20;8.95;;;;;;;15.42;98.75;96791.38;5015784;28;20042;-63
2021/07/20 02:57:55;;;;;;;19.98;9.75;;;;;;;15.35;99.13;96799.69;5022563;28;20056;-62
2021/07/20 03:00:22;;;;;;;19.35;8.82;;;;;;;15.45;99.43;96785.09;5013247;28;20046;-62
2021/07/20 03:02:49;;;;;;;18.30;9.80;;;;;;;15.59;98.80;96793.34;5022302;28;20042;-64
2021/07/20 03:05:16;;;;;;;18.13;9.18;;;;;;;15.77;97.61;96789.75;5017194;28;20052;-64
2021/07/20 03:07:54;;;;;;;18.52;9.30;;;;;;;15.96;96.22;96781.03;5019889;28;20049;-63
2021/07/20 03:10:22;;;;;;;20.10;8.40;;;;;;;16.12;94.67;96777.81;5008051;28;20144;-63
2021/07/20 03:12:49;;;;;;;16.38;9.00;;;;;;;16.18;94.00;96781.72;5018063;28;20067;-63
2021/07/20 03:15:16;;;;;;;16.48;8.85;;;;;;;16.18;93.96;96781.72;5014697;28;20438;-63
2021/07/20 03:17:41;;;;;;;17.30;9.07;;;;;;;16.17;93.79;96779.34;5018538;28;20045;-62
2021/07/20 03:20:10;;;;;;;16.67;9.07;;;;;;;16.25;93.52;96776.16;5016831;28;20041;-62
2021/07/20 03:22:38;;;;;;;18.35;9.27;;;;;;;16.25;93.39;96778.94;5020364;28;20046;-62
2021/07/20 03:25:05;;;;;;;16.23;9.18;;;;;;;16.22;93.32;96776.19;5003921;28;20140;-61
2021/07/20 03:27:32;;;;;;;20.13;8.77;;;;;;;16.19;93.26;96785.28;5010198;28;20052;-63
2021/07/20 03:30:00;;;;;;;18.63;9.55;;;;;;;16.18;93.00;96787.25;5018932;28;20046;-65
2021/07/20 03:32:26;;;;;;;16.33;9.30;;;;;;;16.11;92.91;96790.03;5015172;28;20077;-62
2021/07/20 03:34:52;;;;;;;15.35;9.10;;;;;;;15.94;92.55;96799.19;5024753;28;20050;-62
2021/07/20 03:37:20;;;;;;;16.85;9.93;;;;;;;15.78;93.07;96799.63;5015946;28;20132;-62
2021/07/20 03:39:46;;;;;;;15.77;8.85;;;;;;;15.68;94.41;96801.19;5020707;28;20041;-61
2021/07/20 03:42:12;;;;;;;17.17;9.85;;;;;;;15.52;94.55;96804.41;5016503;28;20516;-62
2021/07/20 03:44:38;;;;;;;20.20;11.05;;;;;;;15.64;95.98;96800.41;5018949;28;20047;-61
2021/07/20 03:47:05;;;;;;;16.85;9.70;;;;;;;15.58;95.75;96804.78;5019329;28;20041;-60
2021/07/20 03:49:32;;;;;;;19.40;9.40;;;;;;;15.76;95.93;96802.00;5031217;28;20037;-63
2021/07/20 03:51:58;;;;;;;19.00;10.07;;;;;;;15.93;94.38;96805.91;5029099;28;20056;-63
2021/07/20 03:54:30;;;;;;;20.95;10.75;;;;;;;15.88;93.37;96803.53;5024564;28;20486;-63
2021/07/20 03:56:57;;;;;;;19.73;10.43;;;;;;;15.78;92.66;96800.41;5021969;28;20095;-62
2021/07/20 03:59:25;;;;;;;16.30;10.32;;;;;;;15.81;92.60;96805.16;5031137;28;20632;-63
2021/07/20 04:01:52;;;;;;;21.98;10.23;;;;;;;15.78;91.85;96807.91;5012119;28;20048;-63
2021/07/20 04:04:20;;;;;;;17.95;10.13;;;;;;;15.70;92.25;96809.88;5015356;28;20074;-63
2021/07/20 04:06:47;;;;;;;20.40;9.82;;;;;;;15.65;93.20;96815.81;5020272;28;20070;-63
2021/07/20 04:09:13;;;;;;;16.65;9.68;;;;;;;15.76;92.92;96810.28;5006892;28;20076;-63
2021/07/20 04:11:40;;;;;;;22.10;10.27;;;;;;;15.77;92.37;96818.19;5021236;28;20052;-63
2021/07/20 04:14:06;;;;;;;17.17;9.82;;;;;;;15.81;93.04;96813.44;5012278;28;20403;-63
2021/07/20 04:16:34;;;;;;;21.20;10.57;;;;;;;15.76;92.96;96818.59;5021831;28;20068;-62
2021/07/20 04:19:00;;;;;;;20.55;9.55;;;;;;;15.86;93.38;96823.28;5022851;28;20132;-62
2021/07/20 04:21:26;;;;;;;16.30;10.05;;;;;;;15.96;92.41;96825.22;5020712;28;20128;-62
2021/07/20 04:23:53;;;;;;;17.52;9.80;;;;;;;16.10;91.85;96824.41;5022858;28;20041;-62
2021/07/20 04:26:19;;;;;;;20.20;10.13;;;;;;;16.34;90.20;96816.41;5017735;28;20038;-62
2021/07/20 04:28:45;;;;;;;18.55;10.07;;;;;;;16.39;90.06;96818.75;5014939;28;20045;-63
2021/07/20 04:31:12;;;;;;;20.92;10.32;;;;;;;16.45;89.80;96825.44;5016215;28;20123;-62
2021/07/20 04:33:38;;;;;;;21.65;10.23;;;;;;;16.69;89.35;96829.28;5020246;28;20104;-63
2021/07/20 04:36:04;;;;;;;15.57;9.23;;;;;;;16.68;88.12;96826.91;5016449;28;20498;-61
2021/07/20 04:38:32;;;;;;;17.05;9.45;;;;;;;16.76;88.22;96832.00;5020498;28;20060;-64
2021/07/20 04:40:59;;;;;;;15.13;9.38;;;;;;;16.97;87.29;96824.78;5021953;28;20555;-63
2021/07/20 04:43:25;;;;;;;18.45;9.75;;;;;;;17.19;85.75;96836.47;5013334;28;20517;-62
2021/07/20 04:45:54;;;;;;;17.63;9.93;;;;;;;17.41;83.61;96831.53;5020615;28;20375;-63
2021/07/20 04:48:20;;;;;;;16.52;9.95;;;;;;;17.58;81.97;96836.13;5016001;28;20065;-63
2021/07/20 04:50:46;;;;;;;21.73;10.95;;;;;;;17.76;81.48;96835.97;5014455;28;20072;-63
2021/07/20 04:53:14;;;;;;;19.17;10.57;;;;;;;17.96;80.23;96835.41;5010155;28;20037;-63
2021/07/20 04:55:40;;;;;;;20.50;12.05;;;;;;;17.78;81.20;96841.09;5018208;28;20541;-62
2021/07/20 04:58:07;;;;;;;16.23;9.45;;;;;;;17.86;81.27;96839.06;5027345;28;20050;-63
2021/07/20 05:00:34;;;;;;;20.33;10.45;;;;;;;17.70;81.43;96843.16;5020260;28;20128;-63
2021/07/20 05:03:01;;;;;;;20.35;10.35;;;;;;;17.86;80.92;96842.66;5025568;28;20041;-62
2021/07/20 05:05:28;;;;;;;16.30;9.77;;;;;;;18.31;79.31;96839.78;5014604;28;20045;-63
2021/07/20 05:07:56;;;;;;;19.50;10.13;;;;;;;19.22;75.59;96837.34;5027463;28;20140;-63
2021/07/20 05:10:21;;;;;;;19.25;10.43;;;;;;;19.92;71.73;96848.91;5021248;28;20127;-62
2021/07/20 05:12:48;;;;;;;22.27;10.55;;;;;;;20.93;68.23;96844.91;5024989;28;20060;-62
2021/07/20 05:15:15;;;;;;;15.80;9.25;;;;;;;21.97;62.79;96842.41;5017426;28;20098;-63
2021/07/20 05:17:41;;;;;;;19.92;10.55;;;;;;;22.95;58.62;96841.25;5017809;28;20066;-63
2021/07/20 05:20:08;;;;;;;17.08;9.68;;;;;;;24.16;55.60;96841.31;5018366;28;20045;-62
2021/07/20 05:22:35;;;;;;;18.02;9.95;;;;;;;24.75;53.37;96847.19;5026385;28;20107;-62
2021/07/20 05:25:04;;;;;;;17.90;10.50;;;;;;;22.99;56.62;96846.72;5043642;28;20204;-62
2021/07/20 05:27:40;;;;;;;23.45;10.40;;;;;;;24.77;52.11;96857.94;5025444;28;20052;-63
2021/07/20 05:30:07;;;;;;;15.38;9.00;;;;;;;24.90;51.66;96846.63;5017162;28;20077;-64
2021/07/20 05:32:45;;;;;;;17.33;10.10;;;;;;;25.61;49.70;96847.88;5009696;28;20034;-63
2021/07/20 05:35:13;;;;;;;16.75;9.68;;;;;;;26.72;48.50;96845.91;5019173;28;20041;-63
2021/07/20 05:37:40;;;;;;;13.70;8.82;;;;;;;27.26;45.31;96846.19;5028442;28;20121;-64
2021/07/20 05:40:07;;;;;;;16.42;9.27;;;;;;;27.62;43.76;96844.50;5023170;28;20203;-64
2021/07/20 05:42:34;;;;;;;14.80;9.20;;;;;;;26.28;46.36;96846.25;5026738;28;20041;-63
2021/07/20 05:45:01;;;;;;;17.70;9.88;;;;;;;27.20;45.37;96848.88;5038463;28;20046;-64
2021/07/20 05:47:27;;;;;;;19.30;9.18;;;;;;;27.71;44.36;96849.28;5003795;28;20048;-63
2021/07/20 05:49:53;;;;;;;15.93;9.27;;;;;;;25.43;49.13;96849.38;5028797;28;20091;-63
2021/07/20 05:52:20;;;;;;;16.60;9.63;;;;;;;24.75;51.39;96852.00;5010443;28;20033;-63
2021/07/20 05:54:46;;;;;;;19.08;11.82;;;;;;;23.87;53.19;96855.50;5024632;28;20052;-63
2021/07/20 05:57:12;;;;;;;20.55;10.82;;;;;;;21.91;58.91;96863.66;5020227;28;20080;-63
2021/07/20 05:59:39;;;;;;;19.40;10.32;;;;;;;22.03;59.71;96856.59;5017002;28;20049;-63
2021/07/20 06:02:11;;;;;;;16.50;9.98;;;;;;;23.08;57.09;96858.84;5010246;28;20453;-62
2021/07/20 06:04:37;;;;;;;15.90;9.15;;;;;;;20.75;61.93;96867.56;5030023;28;20037;-62
2021/07/20 06:07:08;;;;;;;17.60;10.20;;;;;;;21.03;63.25;96871.75;5028072;28;20041;-61
2021/07/20 06:09:34;;;;;;;17.23;9.95;;;;;;;21.52;59.31;96869.03;5029356;28;20049;-62
2021/07/20 06:12:01;;;;;;;17.17;10.88;;;;;;;20.94;62.07;96869.53;5023260;28;20095;-63
2021/07/20 06:14:30;;;;;;;19.73;11.10;;;;;;;19.89;65.83;96877.56;5011886;28;20114;-63
2021/07/20 06:16:55;;;;;;;23.27;11.50;;;;;;;19.94;65.38;96880.63;5026346;28;20057;-63
2021/07/20 06:19:21;;;;;;;14.90;9.23;;;;;;;21.35;61.87;96876.56;5032409;28;20075;-63
2021/07/20 06:21:48;;;;;;;16.98;10.20;;;;;;;23.48;54.65;96872.34;5024877;28;20124;-63
2021/07/20 06:24:14;;;;;;;16.63;9.68;;;;;;;24.86;50.00;96869.19;5010620;28;20406;-62
2021/07/20 06:26:41;;;;;;;17.80;9.30;;;;;;;25.48;49.61;96876.03;5016747;28;20068;-63
2021/07/20 06:29:09;;;;;;;14.68;8.77;;;;;;;26.36;47.08;96871.97;5011762;28;20169;-63
2021/07/20 06:31:39;;;;;;;18.15;10.30;;;;;;;24.33;51.00;96880.31;5009780;28;20067;-63
2021/07/20 06:34:06;;;;;;;18.13;10.98;;;;;;;22.23;57.27;96878.78;5020278;28;20048;-62
2021/07/20 06:36:35;;;;;;;18.38;10.45;;;;;;;22.99;56.05;96878.22;5024285;28;20139;-63
2021/07/20 06:39:02;;;;;;;18.73;10.48;;;;;;;22.23;57.41;96889.94;5024265;28;21076;-63
2021/07/20 06:41:27;;;;;;;16.02;9.82;;;;;;;22.12;59.02;96893.00;5019795;28;20502;-63
2021/07/20 06:43:54;;;;;;;19.88;10.90;;;;;;;21.87;59.32;96882.50;5012484;28;20103;-63
2021/07/20 06:46:22;;;;;;;18.17;10.10;;;;;;;22.52;58.93;96881.59;5011285;28;20037;-62
2021/07/20 06:48:49;;;;;;;19.53;10.97;;;;;;;21.44;60.39;96887.09;5021467;28;20042;-62
2021/07/20 06:51:14;;;;;;;18.58;10.55;;;;;;;22.37;59.24;96881.22;5010743;28;20513;-62
2021/07/20 06:53:40;;;;;;;18.83;9.90;;;;;;;23.99;55.16;96885.47;5006680;28;20137;-63
2021/07/20 06:56:09;;;;;;;16.50;10.65;;;;;;;22.91;57.57;96883.25;5014581;28;20037;-62
2021/07/20 06:58:38;;;;;;;21.60;10.73;;;;;;;22.10;59.17;96890.66;5021276;28;20053;-63
2021/07/20 07:01:06;;;;;;;21.33;11.00;;;;;;;21.99;59.20;96892.19;5018322;28;20044;-62
2021/07/20 07:03:58;;;;;;;20.27;10.10;;;;;;;22.23;59.56;96895.50;5022542;28;20288;-64
2021/07/20 07:06:25;;;;;;;19.92;12.43;;;;;;;22.19;58.83;96892.06;5016832;28;20046;-64
2021/07/20 07:08:54;;;;;;;17.63;10.27;;;;;;;21.77;60.06;96887.16;5021519;28;20090;-63
2021/07/20 07:11:20;;;;;;;18.17;10.35;;;;;;;21.69;61.14;96888.53;5016452;28;20041;-63
2021/07/20 07:13:46;;;;;;;20.05;10.68;;;;;;;21.82;62.41;96894.97;5021694;28;20049;-64
2021/07/20 07:16:12;;;;;;;20.48;10.25;;;;;;;21.66;60.85;96883.81;5010804;28;20460;-63
2021/07/20 07:18:39;;;;;;;15.82;9.98;;;;;;;21.42;60.90;96885.97;5016810;28;20050;-63
2021/07/20 07:21:06;;;;;;;14.70;9.60;;;;;;;22.37;59.41;96886.78;5003085;28;20128;-62
2021/07/20 07:23:32;;;;;;;19.73;9.70;;;;;;;21.73;60.37;96892.81;5023841;28;20053;-63
2021/07/20 07:26:00;;;;;;;14.95;8.95;;;;;;;24.34;53.81;96885.44;5003571;28;20042;-64
2021/07/20 07:28:27;;;;;;;15.40;8.60;;;;;;;23.99;53.96;96888.25;4998477;28;20080;-62
2021/07/20 07:30:53;;;;;;;16.92;10.20;;;;;;;22.86;56.21;96891.38;5003245;28;20095;-62
2021/07/20 07:33:20;;;;;;;16.65;9.52;;;;;;;22.05;60.16;96888.41;5009414;28;20067;-62
2021/07/20 07:35:47;;;;;;;18.58;10.15;;;;;;;22.29;59.00;96888.19;5022244;28;20049;-63
2021/07/20 07:38:14;;;;;;;17.48;9.70;;;;;;;22.58;58.96;96885.41;5016414;28;20524;-60
2021/07/20 07:40:40;;;;;;;20.55;9.60;;;;;;;23.54;56.82;96882.97;5002433;28;20045;-64
2021/07/20 07:43:06;;;;;;;16.13;9.27;;;;;;;24.70;52.96;96886.22;4997274;28;20398;-62
2021/07/20 07:45:32;;;;;;;17.25;8.43;;;;;;;26.19;49.04;96882.75;5011235;28;20073;-60
2021/07/20 07:47:59;;;;;;;13.43;8.70;;;;;;;26.59;47.18;96882.56;5016195;28;20066;-63
2021/07/20 07:50:25;;;;;;;14.15;9.25;;;;;;;24.90;51.86;96885.84;4996321;28;20038;-60
2021/07/20 07:52:52;;;;;;;20.92;9.80;;;;;;;23.60;56.04;96886.75;5001910;28;20549;-59
2021/07/20 07:55:22;;;;;;;16.60;9.52;;;;;;;26.15;48.74;96887.75;4996404;28;20038;-62
2021/07/20 07:57:48;;;;;;;14.32;9.25;;;;;;;27.15;44.98;96885.31;5001657;28;20038;-61
2021/07/20 08:00:15;;;;;;;15.43;8.32;;;;;;;25.86;49.81;96892.50;5003265;28;20707;-62
2021/07/20 08:02:46;;;;;;;15.90;9.77;;;;;;;26.12;47.05;96886.66;5019871;28;20045;-63
2021/07/20 08:05:13;;;;;;;14.23;8.75;;;;;;;27.74;43.92;96890.53;5006911;28;20529;-63
2021/07/20 08:07:41;;;;;;;17.05;8.57;;;;;;;29.39;40.29;96892.44;5020449;28;20065;-64
2021/07/20 08:10:10;;;;;;;14.00;8.50;;;;;;;29.61;39.84;96889.22;5015002;28;20056;-62
2021/07/20 08:12:38;;;;;;;16.75;10.10;;;;;;;25.96;47.78;96887.72;5020288;28;20506;-62
2021/07/20 08:15:04;;;;;;;17.38;10.13;;;;;;;25.31;48.66;96893.09;5007631;28;20407;-65
2021/07/20 08:17:33;;;;;;;15.25;8.43;;;;;;;26.31;47.96;96890.25;5000876;28;20038;-64
2021/07/20 08:19:59;;;;;;;14.20;9.03;;;;;;;26.47;46.20;96889.94;5001383;28;20108;-62
2021/07/20 08:22:26;;;;;;;16.67;8.75;;;;;;;25.83;48.87;96890.63;4996565;28;20284;-62
2021/07/20 08:25:00;;;;;;;14.57;9.45;;;;;;;27.90;43.30;96886.56;5003550;28;20073;-63
2021/07/20 08:27:35;;;;;;;19.27;9.70;;;;;;;27.41;44.85;96886.47;5011791;28;20053;-62
2021/07/20 08:30:03;;;;;;;17.13;8.52;;;;;;;28.45;42.43;96886.19;5023872;28;20457;-62
2021/07/20 08:32:32;;;;;;;14.18;8.45;;;;;;;29.08;41.18;96883.25;5026439;28;20049;-64
2021/07/20 08:35:05;;;;;;;14.00;8.43;;;;;;;29.59;40.52;96892.53;5021328;28;20379;-63
2021/07/20 08:37:34;;;;;;;14.30;9.38;;;;;;;29.11;41.20;96882.25;5010103;28;20049;-62
2021/07/20 08:40:02;;;;;;;16.75;9.25;;;;;;;29.39;40.70;96884.00;5000158;28;20042;-64
2021/07/20 08:42:41;;;;;;;14.60;9.05;;;;;;;29.81;39.19;96886.44;5002512;28;20045;-61
2021/07/20 08:45:19;;;;;;;14.80;8.05;;;;;;;29.33;40.17;96886.72;5008728;28;20104;-64
2021/07/20 08:47:50;;;;;;;13.13;8.27;;;;;;;30.46;38.79;96885.50;5012831;28;20049;-62
2021/07/20 08:50:29;;;;;;;11.40;7.65;;;;;;;30.62;37.98;96887.72;5008716;28;20442;-63
2021/07/20 08:53:18;;;;;;;13.63;8.43;;;;;;;30.66;38.72;96890.34;5019863;28;20047;-61
2021/07/20 08:55:49;;;;;;;14.27;8.77;;;;;;;30.45;38.32;96884.72;5010194;28;20042;-63
2021/07/20 08:58:21;;;;;;;15.07;8.68;;;;;;;30.68;38.39;96885.75;5010236;28;20158;-63
2021/07/20 09:00:49;;;;;;;13.95;8.48;;;;;;;30.23;39.34;96887.25;5015265;28;20041;-62
2021/07/20 09:03:43;;;;;;;19.55;8.50;;;;;;;29.48;39.47;96881.84;5012785;28;20049;-64
2021/07/20 09:06:17;;;;;;;13.95;8.77;;;;;;;30.58;37.97;96880.75;5011817;28;20042;-63
2021/07/20 09:09:01;;;;;;;17.65;9.30;;;;;;;28.85;42.29;96884.88;5017644;28;20125;-64
2021/07/20 09:11:45;;;;;;;17.50;10.45;;;;;;;27.87;44.10;96877.00;5013445;28;20882;-60
2021/07/20 09:14:13;;;;;;;20.23;9.73;;;;;;;28.65;44.21;96873.50;5010149;28;20046;-60
2021/07/20 09:16:45;;;;;;;18.00;10.07;;;;;;;28.73;43.44;96874.66;5017901;28;20042;-63
2021/07/20 09:19:42;;;;;;;17.48;9.00;;;;;;;29.38;41.39;96877.56;5012549;28;20517;-64
2021/07/20 09:22:17;;;;;;;18.33;9.85;;;;;;;29.49;41.79;96874.16;5013853;28;20045;-61
2021/07/20 09:24:48;;;;;;;19.10;9.85;;;;;;;29.86;41.44;96873.69;5019070;28;20566;-62
2021/07/20 09:27:27;;;;;;;15.55;9.68;;;;;;;28.94;42.79;96872.75;5013558;28;20099;-64
2021/07/20 09:29:54;;;;;;;17.45;9.57;;;;;;;28.92;43.33;96872.47;5017193;28;20045;-65
2021/07/20 09:32:32;;;;;;;16.75;9.82;;;;;;;28.75;43.90;96866.50;5013304;28;20045;-63
2021/07/20 09:35:09;;;;;;;15.25;9.13;;;;;;;27.79;45.53;96875.81;5020108;28;21456;-61
2021/07/20 09:37:47;;;;;;;18.60;9.70;;;;;;;27.77;44.96;96864.28;5018324;28;20056;-64
2021/07/20 09:40:33;;;;;;;16.92;10.15;;;;;;;26.01;49.52;96872.28;5013217;28;20053;-62
2021/07/20 09:43:24;;;;;;;18.17;9.80;;;;;;;27.64;46.08;96870.09;5015185;28;20056;-64
2021/07/20 09:45:59;;;;;;;16.25;9.85;;;;;;;27.41;47.82;96874.47;5016265;28;20489;-64
2021/07/20 09:48:36;;;;;;;16.88;10.15;;;;;;;27.60;47.14;96867.50;5013278;28;20148;-65
2021/07/20 09:51:20;;;;;;;18.77;10.68;;;;;;;28.44;46.04;96864.88;5019797;28;20041;-64
2021/07/20 09:54:30;;;;;;;17.83;10.10;;;;;;;28.16;46.89;96855.88;5021609;28;20045;-65
2021/07/20 09:57:05;;;;;;;18.98;10.73;;;;;;;28.10;46.67;96858.59;5020076;28;20053;-64
2021/07/20 09:59:49;;;;;;;21.45;10.75;;;;;;;27.50;48.05;96862.41;5034796;28;20071;-64
2021/07/20 10:02:24;;;;;;;15.13;9.60;;;;;;;27.41;47.74;96863.97;5010072;28;20099;-63
2021/07/20 10:05:13;;;;;;;18.35;10.63;;;;;;;27.30;47.37;96860.13;5021387;28;20647;-65
2021/07/20 10:07:42;;;;;;;18.15;10.75;;;;;;;26.89;47.41;96854.78;5019699;28;20072;-62
2021/07/20 10:10:31;;;;;;;19.23;10.35;;;;;;;27.76;47.23;96852.22;5014764;28;20430;-64
2021/07/20 10:13:02;;;;;;;20.58;10.57;;;;;;;27.89;46.99;96854.03;4998083;28;20048;-64
2021/07/20 10:15:55;;;;;;;23.13;14.00;;;;;;;28.68;44.06;96853.56;5017250;28;20092;-65
2021/07/20 10:18:41;;;;;;;19.23;10.30;;;;;;;28.18;45.16;96856.19;5027630;28;20049;-64
2021/07/20 10:21:11;;;;;;;17.63;9.65;;;;;;;28.50;45.07;96851.69;5015531;28;20072;-65
2021/07/20 10:23:53;;;;;;;13.65;8.95;;;;;;;28.20;45.60;96845.22;5022621;28;20041;-64
2021/07/20 10:26:24;;;;;;;16.52;9.35;;;;;;;28.28;45.73;96840.00;5018428;28;20038;-65
2021/07/20 10:29:14;;;;;;;16.27;9.57;;;;;;;29.07;44.06;96836.56;5020768;28;20406;-63
2021/07/20 10:31:53;;;;;;;16.65;9.82;;;;;;;28.22;46.14;96839.91;5006201;28;20398;-64
2021/07/20 10:34:23;;;;;;;22.97;9.67;;;;;;;28.14;45.97;96835.88;5014051;28;20512;-64
2021/07/20 10:36:55;;;;;;;18.30;10.25;;;;;;;27.85;47.86;96837.31;5027943;28;20052;-65
2021/07/20 10:39:29;;;;;;;15.88;10.07;;;;;;;27.69;46.58;96840.56;5022969;28;20041;-65
2021/07/20 10:42:14;;;;;;;17.55;9.68;;;;;;;26.48;50.15;96843.72;5022956;28;20045;-63
2021/07/20 10:44:43;;;;;;;22.52;10.93;;;;;;;26.61;48.72;96834.38;5031761;28;20046;-64
2021/07/20 10:47:09;;;;;;;16.35;9.73;;;;;;;27.06;48.00;96835.50;5025748;28;20568;-64
2021/07/20 10:49:45;;;;;;;16.85;10.55;;;;;;;27.41;47.05;96826.66;5014730;28;20441;-64
2021/07/20 10:52:24;;;;;;;19.65;9.65;;;;;;;27.81;46.57;96826.25;5011786;28;20041;-64
2021/07/20 10:55:00;;;;;;;14.63;9.57;;;;;;;27.72;48.57;96829.13;5017949;28;20055;-62
2021/07/20 10:57:33;;;;;;;15.93;9.93;;;;;;;28.13;47.79;96829.47;5015083;28;20061;-61
2021/07/20 11:00:04;;;;;;;15.45;9.48;;;;;;;28.74;45.20;96823.47;5020321;28;20041;-62
2021/07/20 11:03:06;;;;;;;15.90;9.07;;;;;;;28.46;45.76;96828.56;5016988;28;20068;-64
2021/07/20 11:05:37;;;;;;;16.08;9.15;;;;;;;28.36;43.88;96819.44;5008963;28;20693;-64
2021/07/20 11:08:05;;;;;;;15.40;9.10;;;;;;;28.49;43.95;96826.84;5016972;28;20033;-66
2021/07/20 11:10:53;;;;;;;14.60;8.90;;;;;;;28.47;44.37;96813.22;5019411;28;20081;-62
2021/07/20 11:13:25;;;;;;;15.98;9.73;;;;;;;28.27;45.61;96819.53;5012523;28;20056;-64
2021/07/20 11:15:53;;;;;;;14.35;9.73;;;;;;;27.92;45.76;96819.31;5021277;28;20037;-65
2021/07/20 11:18:23;;;;;;;17.30;8.95;;;;;;;27.40;44.87;96816.66;5011903;28;20406;-65
2021/07/20 11:20:52;;;;;;;16.10;9.93;;;;;;;26.46;45.67;96820.97;5020150;28;20413;-63
2021/07/20 11:23:19;;;;;;;16.40;9.25;;;;;;;25.92;48.54;96822.53;5015161;28;20052;-61
2021/07/20 11:25:47;;;;;;;17.95;9.90;;;;;;;24.65;48.32;96826.00;5034847;28;20061;-63
2021/07/20 11:28:13;;;;;;;13.55;9.38;;;;;;;24.82;48.77;96823.75;5015451;28;20045;-64
2021/07/20 11:30:41;;;;;;;17.08;9.90;;;;;;;25.84;46.65;96829.66;5017078;28;20045;-63
2021/07/20 11:33:15;;;;;;;18.90;10.10;;;;;;;25.70;47.88;96826.25;5015154;28;20053;-63
2021/07/20 11:35:44;;;;;;;17.80;9.88;;;;;;;26.90;46.44;96814.16;5020678;28;20037;-64
2021/07/20 11:38:13;;;;;;;15.80;10.40;;;;;;;27.34;48.05;96812.94;5014170;28;20081;-64